Marchicora — V2OQ7 — position and weather

sailwx.info

Track history (hours):
 
Tides and Currents Weather Stations Pressure Air Temp Water Temp Dewpoint Dewpoint Depression Visibility Wind Speed Wind Dir Waves Ship Positions

Marchicora

Last reported at 2015-Apr-19 15:33 UTC. Time now 2015-Apr-27 22:13 UTC.
Position N 57°20' E 017°43'.
Warning: this ship's position is 8 days out of date.

Length 153 m; draft 6.4 m.

Type: Cargo ship. MMSI: 304653000.

Date/timePositionNaut miles runAvg speedWind from/ knotsBaromVisibWave heightAir tempDewpointWater temp
2015-Apr-19 15:33N 57°20' E 017°43'1413.8
2015-Apr-19 14:32N 57°07' E 017°33'15513.8
2015-Apr-19 03:15N 54°49' E 015°27'1013.8
2015-Apr-19 02:33N 54°40' E 015°18'1413.9
2015-Apr-19 01:32N 54°28' E 015°07'1413.9
2015-Apr-19 00:33N 54°18' E 014°51'1414.1
2015-Apr-18 23:33N 54°09' E 014°33'1413.6
2015-Apr-18 22:33N 53°59' E 014°16'7 7.5
2015-Apr-18 21:33N 53°52' E 014°17'9 8.9
2015-Apr-18 20:33N 53°45' E 014°25'1110.8
2015-Apr-18 19:33N 53°36' E 014°36'6 6.0
2015-Apr-18 18:33N 53°30' E 014°37'0 0.0
2015-Apr-18 17:31N 53°30' E 014°37'0 0.0
2015-Apr-18 16:31N 53°30' E 014°37'0 0.0
2015-Apr-18 15:31N 53°30' E 014°37'0 0.0
2015-Apr-18 14:31N 53°30' E 014°37'0 0.0
2015-Apr-18 13:31N 53°30' E 014°37'0 0.0
2015-Apr-18 12:31N 53°30' E 014°37'0 0.0
2015-Apr-18 11:31N 53°30' E 014°37'0 0.0
2015-Apr-18 10:31N 53°30' E 014°37'0 0.0
2015-Apr-18 09:31N 53°30' E 014°37'0 0.0
2015-Apr-18 08:31N 53°30' E 014°37'0 0.0
2015-Apr-18 07:31N 53°30' E 014°37'0 0.0
2015-Apr-18 06:31N 53°30' E 014°37'0 0.0
2015-Apr-18 05:31N 53°30' E 014°37'0 0.0
2015-Apr-18 04:31N 53°30' E 014°37'0 0.0
2015-Apr-18 03:28N 53°30' E 014°37'0 0.0
2015-Apr-18 02:28N 53°30' E 014°37'0 0.0
2015-Apr-18 01:31N 53°30' E 014°37'0 0.0
2015-Apr-18 00:31N 53°30' E 014°37'0 0.0
2015-Apr-17 23:31N 53°30' E 014°37'0 0.0
2015-Apr-17 22:31N 53°30' E 014°37'0 0.0
2015-Apr-17 21:31N 53°30' E 014°37'0 0.0
2015-Apr-17 20:31N 53°30' E 014°37'0 0.0
2015-Apr-17 19:31N 53°30' E 014°37'0 0.0
2015-Apr-17 18:31N 53°30' E 014°37'0 0.0
2015-Apr-17 17:31N 53°30' E 014°37'0 0.0
2015-Apr-17 16:31N 53°30' E 014°37'0 0.0
2015-Apr-17 15:31N 53°30' E 014°37'0 0.0
2015-Apr-17 14:31N 53°30' E 014°37'0 0.0
2015-Apr-17 13:31N 53°30' E 014°37'0 0.0
2015-Apr-17 12:31N 53°30' E 014°37'0 0.0
2015-Apr-17 11:31N 53°30' E 014°37'0 0.0
2015-Apr-17 10:28N 53°30' E 014°37'0 0.0
2015-Apr-17 09:33N 53°30' E 014°37'0 0.0
2015-Apr-17 08:33N 53°30' E 014°37'0 0.0
2015-Apr-17 07:33N 53°30' E 014°37'0 0.1
2015-Apr-17 06:33N 53°30' E 014°37'4 3.6
2015-Apr-17 05:33N 53°33' E 014°36'8 8.1
2015-Apr-17 04:33N 53°41' E 014°31'1110.9
2015-Apr-17 03:33N 53°49' E 014°19'6 6.2
2015-Apr-17 02:33N 53°55' E 014°17'8 7.9
2015-Apr-17 01:33N 54°03' E 014°14'7 7.1
2015-Apr-17 00:33N 54°10' E 014°12'8 7.8
2015-Apr-16 23:33N 54°17' E 014°05'1413.7
2015-Apr-16 22:33N 54°27' E 013°50'1414.2
2015-Apr-16 21:33N 54°40' E 013°39'1212.3
2015-Apr-16 20:33N 54°45' E 013°20'1414.3
2015-Apr-16 19:33N 54°45' E 012°55'1313.5
2015-Apr-16 18:34N 54°40' E 012°33'1413.9
2015-Apr-16 17:33N 54°30' E 012°16'1312.6
2015-Apr-16 16:33N 54°25' E 011°57'1414.3
2015-Apr-16 15:33N 54°29' E 011°33'1514.8
2015-Apr-16 14:33N 54°35' E 011°10'12312.2
2015-Apr-16 04:32N 56°36' E 011°43'1312.9
2015-Apr-16 03:33N 56°48' E 011°50'1514.8
2015-Apr-16 02:33N 57°02' E 011°41'1514.9
2015-Apr-16 01:33N 57°16' E 011°31'1414.4
2015-Apr-16 00:33N 57°29' E 011°20'1414.2
2015-Apr-15 23:33N 57°39' E 011°01'1515.0
2015-Apr-15 22:33N 57°47' E 010°37'8413.8
2015-Apr-15 16:26N 57°13' E 008°13'1313.0
2015-Apr-15 15:27N 57°03' E 007°60'11013.9
2015-Apr-15 07:31N 55°29' E 006°16'2014.0
2015-Apr-15 06:06N 55°12' E 005°58'1214.0
2015-Apr-15 05:15N 55°02' E 005°47'1014.0
2015-Apr-15 04:33N 54°53' E 005°38'1414.1
2015-Apr-15 03:33N 54°41' E 005°27'2014.2
2015-Apr-15 02:08N 54°23' E 005°11'814.3
2015-Apr-15 01:33N 54°16' E 005°04'1414.3
2015-Apr-15 00:33N 54°03' E 004°53'1414.2
2015-Apr-14 23:33N 53°49' E 004°52'1413.8
2015-Apr-14 22:33N 53°35' E 004°49'1413.7
2015-Apr-14 21:33N 53°23' E 004°40'1413.5
2015-Apr-14 20:33N 53°10' E 004°31'1313.2
2015-Apr-14 19:33N 52°59' E 004°20'1313.1
2015-Apr-14 18:33N 52°47' E 004°10'1212.2
2015-Apr-14 17:33N 52°36' E 004°18'1 0.5
2015-Apr-14 16:33N 52°36' E 004°19'6 6.0
2015-Apr-14 15:33N 52°31' E 004°24'4 4.1
2015-Apr-14 14:34N 52°29' E 004°30'4 4.0
2015-Apr-14 13:34N 52°28' E 004°37'6 6.1
2015-Apr-14 12:33N 52°26' E 004°46'4 4.1
2015-Apr-14 11:32N 52°24' E 004°52'0 0.0
2015-Apr-14 10:32N 52°24' E 004°52'0 0.0
2015-Apr-14 09:32N 52°24' E 004°52'0 0.0
2015-Apr-14 08:32N 52°24' E 004°52'0 0.0
2015-Apr-14 07:32N 52°24' E 004°52'0 0.0
2015-Apr-14 06:32N 52°24' E 004°52'0 0.0
2015-Apr-14 05:31N 52°24' E 004°52'0 0.0
2015-Apr-14 04:31N 52°24' E 004°52'0 0.0
2015-Apr-14 03:31N 52°24' E 004°52'0 0.0
2015-Apr-14 02:31N 52°24' E 004°52'0 0.0
2015-Apr-14 01:32N 52°24' E 004°52'0 0.0
2015-Apr-14 00:31N 52°24' E 004°52'0 0.0
2015-Apr-13 23:31N 52°24' E 004°52'0 0.0
2015-Apr-13 22:31N 52°24' E 004°52'0 0.0
2015-Apr-13 21:31N 52°24' E 004°52'0 0.0
2015-Apr-13 20:31N 52°24' E 004°52'0 0.0
2015-Apr-13 19:31N 52°24' E 004°52'0 0.0
2015-Apr-13 18:31N 52°24' E 004°52'0 0.0
2015-Apr-13 17:31N 52°24' E 004°52'0 0.0
2015-Apr-13 16:31N 52°24' E 004°52'0 0.0
2015-Apr-13 15:31N 52°24' E 004°52'0 0.0
2015-Apr-13 14:31N 52°24' E 004°52'0 0.0
2015-Apr-13 13:31N 52°24' E 004°52'0 0.0
2015-Apr-13 12:31N 52°24' E 004°52'0 0.0
2015-Apr-13 11:31N 52°24' E 004°52'0 0.0
2015-Apr-13 10:31N 52°24' E 004°52'0 0.0
2015-Apr-13 09:31N 52°24' E 004°52'0 0.0
2015-Apr-13 08:31N 52°24' E 004°52'0 0.0
2015-Apr-13 07:31N 52°24' E 004°52'0 0.0
2015-Apr-13 06:31N 52°24' E 004°52'0 0.0
2015-Apr-13 05:28N 52°24' E 004°52'0 0.0
2015-Apr-13 04:31N 52°24' E 004°52'0 0.0
2015-Apr-13 03:31N 52°24' E 004°52'0 0.0
2015-Apr-13 02:31N 52°24' E 004°52'0 0.0
2015-Apr-13 01:31N 52°24' E 004°52'0 0.0
2015-Apr-13 00:31N 52°24' E 004°52'0 0.0
2015-Apr-12 23:31N 52°24' E 004°52'0 0.0
2015-Apr-12 22:31N 52°24' E 004°52'0 0.0
2015-Apr-12 21:31N 52°24' E 004°52'0 0.0
2015-Apr-12 20:31N 52°24' E 004°52'0 0.0
2015-Apr-12 19:31N 52°24' E 004°52'0 0.0
2015-Apr-12 18:34N 52°24' E 004°52'0 0.0
2015-Apr-12 17:34N 52°24' E 004°52'0 0.0
2015-Apr-12 16:33N 52°24' E 004°52'0 0.0
2015-Apr-12 15:33N 52°24' E 004°52'0 0.0
2015-Apr-12 14:33N 52°24' E 004°52'0 0.0
2015-Apr-12 13:33N 52°24' E 004°52'0 0.0
2015-Apr-12 12:33N 52°24' E 004°52'0 0.0
2015-Apr-12 11:33N 52°24' E 004°52'0 0.0
2015-Apr-12 10:33N 52°24' E 004°52'0 0.0
2015-Apr-12 09:33N 52°24' E 004°52'0 0.0
2015-Apr-12 08:33N 52°24' E 004°52'0 0.0
2015-Apr-12 07:33N 52°24' E 004°52'0 0.0
2015-Apr-12 06:33N 52°24' E 004°52'0 0.0
2015-Apr-12 05:33N 52°24' E 004°52'0 0.0
2015-Apr-12 04:33N 52°24' E 004°52'0 0.0
2015-Apr-12 03:33N 52°24' E 004°52'0 0.0
2015-Apr-12 02:33N 52°24' E 004°52'0 0.0
2015-Apr-12 01:33N 52°24' E 004°52'0 0.0
2015-Apr-12 00:30N 52°24' E 004°52'0 0.0
2015-Apr-11 23:30N 52°24' E 004°52'0 0.0
2015-Apr-11 22:33N 52°24' E 004°52'0 0.0
2015-Apr-11 21:33N 52°24' E 004°52'0 0.0
2015-Apr-11 20:33N 52°24' E 004°52'0 0.0
2015-Apr-11 19:33N 52°24' E 004°52'0 0.0
2015-Apr-11 18:33N 52°24' E 004°52'0 0.0
2015-Apr-11 17:33N 52°24' E 004°52'0 0.0
2015-Apr-11 16:33N 52°24' E 004°52'0 0.0
2015-Apr-11 15:33N 52°24' E 004°52'0 0.0
2015-Apr-11 14:33N 52°24' E 004°52'0 0.0
2015-Apr-11 13:33N 52°24' E 004°52'0 0.0
2015-Apr-11 12:33N 52°24' E 004°52'0 0.0
2015-Apr-11 11:34N 52°24' E 004°52'5 5.4
2015-Apr-11 10:34N 52°26' E 004°44'5 5.0
2015-Apr-11 09:34N 52°28' E 004°36'2 1.8
2015-Apr-11 08:34N 52°28' E 004°34'9 9.3
2015-Apr-11 07:33N 52°29' E 004°18'7 7.2
2015-Apr-11 06:31N 52°27' E 004°06'0 0.0
2015-Apr-11 05:31N 52°27' E 004°06'0 0.0
2015-Apr-11 04:31N 52°27' E 004°06'0 0.2
2015-Apr-11 03:31N 52°27' E 004°06'1 1.4
2015-Apr-11 02:33N 52°27' E 004°04'1010.5
2015-Apr-11 01:34N 52°24' E 003°48'1212.1
2015-Apr-11 00:33N 52°17' E 003°31'1211.9
2015-Apr-10 23:33N 52°11' E 003°14'1212.0
2015-Apr-10 22:33N 52°02' E 003°01'1312.6
2015-Apr-10 21:33N 51°53' E 002°47'1513.2
2015-Apr-10 20:27N 51°42' E 002°32'1213.5
2015-Apr-10 19:33N 51°33' E 002°19'1413.9
2015-Apr-10 18:33N 51°20' E 002°09'1313.5
2015-Apr-10 17:34N 51°10' E 001°55'1514.7
2015-Apr-10 16:34N 51°01' E 001°37'1515.2
2015-Apr-10 15:34N 50°48' E 001°24'1414.2
2015-Apr-10 14:34N 50°37' E 001°11'1513.9
2015-Apr-10 13:31N 50°29' E 000°52'1814.5
2015-Apr-10 12:15N 50°24' E 000°24'1314.8
2015-Apr-10 11:22N 50°20' E 000°04'2814.2
2015-Apr-10 09:22N 50°13' W 000°39'1113.2
2015-Apr-10 08:33N 50°10' W 000°55'1212.2
2015-Apr-10 07:34N 50°07' W 001°13'1111.1
2015-Apr-10 06:34N 50°04' W 001°30'10 9.9
2015-Apr-10 05:33N 50°01' W 001°45'9 9.5
2015-Apr-10 04:33N 49°59' W 001°59'10 9.8
2015-Apr-10 03:33N 49°56' W 002°14'1111.4
2015-Apr-10 02:33N 49°53' W 002°31'2512.5
2015-Apr-10 00:33N 49°44' W 003°07'1313.2
2015-Apr-09 23:33N 49°37' W 003°25'10013.9
2015-Apr-09 16:20N 48°47' W 005°37'  
Track history (hours):
 
Tides and Currents Weather Stations Pressure Air Temp Water Temp Dewpoint Dewpoint Depression Visibility Wind Speed Wind Dir Waves Ship Positions

Marchicora

Last reported at 2015-Apr-19 15:33 UTC. Time now 2015-Apr-27 22:13 UTC.
Position N 57°20' E 017°43'.
Warning: this ship's position is 8 days out of date.

Length 153 m; draft 6.4 m.

Type: Cargo ship. MMSI: 304653000.

Date/timePositionNaut miles runAvg speedWind from/ knotsBaromVisibWave heightAir tempDewpointWater temp
2015-Apr-19 15:33N 57°20' E 017°43'1413.8
2015-Apr-19 14:32N 57°07' E 017°33'15513.8
2015-Apr-19 03:15N 54°49' E 015°27'1013.8
2015-Apr-19 02:33N 54°40' E 015°18'1413.9
2015-Apr-19 01:32N 54°28' E 015°07'1413.9
2015-Apr-19 00:33N 54°18' E 014°51'1414.1
2015-Apr-18 23:33N 54°09' E 014°33'1413.6
2015-Apr-18 22:33N 53°59' E 014°16'7 7.5
2015-Apr-18 21:33N 53°52' E 014°17'9 8.9
2015-Apr-18 20:33N 53°45' E 014°25'1110.8
2015-Apr-18 19:33N 53°36' E 014°36'6 6.0
2015-Apr-18 18:33N 53°30' E 014°37'0 0.0
2015-Apr-18 17:31N 53°30' E 014°37'0 0.0
2015-Apr-18 16:31N 53°30' E 014°37'0 0.0
2015-Apr-18 15:31N 53°30' E 014°37'0 0.0
2015-Apr-18 14:31N 53°30' E 014°37'0 0.0
2015-Apr-18 13:31N 53°30' E 014°37'0 0.0
2015-Apr-18 12:31N 53°30' E 014°37'0 0.0
2015-Apr-18 11:31N 53°30' E 014°37'0 0.0
2015-Apr-18 10:31N 53°30' E 014°37'0 0.0
2015-Apr-18 09:31N 53°30' E 014°37'0 0.0
2015-Apr-18 08:31N 53°30' E 014°37'0 0.0
2015-Apr-18 07:31N 53°30' E 014°37'0 0.0
2015-Apr-18 06:31N 53°30' E 014°37'0 0.0
2015-Apr-18 05:31N 53°30' E 014°37'0 0.0
2015-Apr-18 04:31N 53°30' E 014°37'0 0.0
2015-Apr-18 03:28N 53°30' E 014°37'0 0.0
2015-Apr-18 02:28N 53°30' E 014°37'0 0.0
2015-Apr-18 01:31N 53°30' E 014°37'0 0.0
2015-Apr-18 00:31N 53°30' E 014°37'0 0.0
2015-Apr-17 23:31N 53°30' E 014°37'0 0.0
2015-Apr-17 22:31N 53°30' E 014°37'0 0.0
2015-Apr-17 21:31N 53°30' E 014°37'0 0.0
2015-Apr-17 20:31N 53°30' E 014°37'0 0.0
2015-Apr-17 19:31N 53°30' E 014°37'0 0.0
2015-Apr-17 18:31N 53°30' E 014°37'0 0.0
2015-Apr-17 17:31N 53°30' E 014°37'0 0.0
2015-Apr-17 16:31N 53°30' E 014°37'0 0.0
2015-Apr-17 15:31N 53°30' E 014°37'0 0.0
2015-Apr-17 14:31N 53°30' E 014°37'0 0.0
2015-Apr-17 13:31N 53°30' E 014°37'0 0.0
2015-Apr-17 12:31N 53°30' E 014°37'0 0.0
2015-Apr-17 11:31N 53°30' E 014°37'0 0.0
2015-Apr-17 10:28N 53°30' E 014°37'0 0.0
2015-Apr-17 09:33N 53°30' E 014°37'0 0.0
2015-Apr-17 08:33N 53°30' E 014°37'0 0.0
2015-Apr-17 07:33N 53°30' E 014°37'0 0.1
2015-Apr-17 06:33N 53°30' E 014°37'4 3.6
2015-Apr-17 05:33N 53°33' E 014°36'8 8.1
2015-Apr-17 04:33N 53°41' E 014°31'1110.9
2015-Apr-17 03:33N 53°49' E 014°19'6 6.2
2015-Apr-17 02:33N 53°55' E 014°17'8 7.9
2015-Apr-17 01:33N 54°03' E 014°14'7 7.1
2015-Apr-17 00:33N 54°10' E 014°12'8 7.8
2015-Apr-16 23:33N 54°17' E 014°05'1413.7
2015-Apr-16 22:33N 54°27' E 013°50'1414.2
2015-Apr-16 21:33N 54°40' E 013°39'1212.3
2015-Apr-16 20:33N 54°45' E 013°20'1414.3
2015-Apr-16 19:33N 54°45' E 012°55'1313.5
2015-Apr-16 18:34N 54°40' E 012°33'1413.9
2015-Apr-16 17:33N 54°30' E 012°16'1312.6
2015-Apr-16 16:33N 54°25' E 011°57'1414.3
2015-Apr-16 15:33N 54°29' E 011°33'1514.8
2015-Apr-16 14:33N 54°35' E 011°10'12312.2
2015-Apr-16 04:32N 56°36' E 011°43'1312.9
2015-Apr-16 03:33N 56°48' E 011°50'1514.8
2015-Apr-16 02:33N 57°02' E 011°41'1514.9
2015-Apr-16 01:33N 57°16' E 011°31'1414.4
2015-Apr-16 00:33N 57°29' E 011°20'1414.2
2015-Apr-15 23:33N 57°39' E 011°01'1515.0
2015-Apr-15 22:33N 57°47' E 010°37'8413.8
2015-Apr-15 16:26N 57°13' E 008°13'1313.0
2015-Apr-15 15:27N 57°03' E 007°60'11013.9
2015-Apr-15 07:31N 55°29' E 006°16'2014.0
2015-Apr-15 06:06N 55°12' E 005°58'1214.0
2015-Apr-15 05:15N 55°02' E 005°47'1014.0
2015-Apr-15 04:33N 54°53' E 005°38'1414.1
2015-Apr-15 03:33N 54°41' E 005°27'2014.2
2015-Apr-15 02:08N 54°23' E 005°11'814.3
2015-Apr-15 01:33N 54°16' E 005°04'1414.3
2015-Apr-15 00:33N 54°03' E 004°53'1414.2
2015-Apr-14 23:33N 53°49' E 004°52'1413.8
2015-Apr-14 22:33N 53°35' E 004°49'1413.7
2015-Apr-14 21:33N 53°23' E 004°40'1413.5
2015-Apr-14 20:33N 53°10' E 004°31'1313.2
2015-Apr-14 19:33N 52°59' E 004°20'1313.1
2015-Apr-14 18:33N 52°47' E 004°10'1212.2
2015-Apr-14 17:33N 52°36' E 004°18'1 0.5
2015-Apr-14 16:33N 52°36' E 004°19'6 6.0
2015-Apr-14 15:33N 52°31' E 004°24'4 4.1
2015-Apr-14 14:34N 52°29' E 004°30'4 4.0
2015-Apr-14 13:34N 52°28' E 004°37'6 6.1
2015-Apr-14 12:33N 52°26' E 004°46'4 4.1
2015-Apr-14 11:32N 52°24' E 004°52'0 0.0
2015-Apr-14 10:32N 52°24' E 004°52'0 0.0
2015-Apr-14 09:32N 52°24' E 004°52'0 0.0
2015-Apr-14 08:32N 52°24' E 004°52'0 0.0
2015-Apr-14 07:32N 52°24' E 004°52'0 0.0
2015-Apr-14 06:32N 52°24' E 004°52'0 0.0
2015-Apr-14 05:31N 52°24' E 004°52'0 0.0
2015-Apr-14 04:31N 52°24' E 004°52'0 0.0
2015-Apr-14 03:31N 52°24' E 004°52'0 0.0
2015-Apr-14 02:31N 52°24' E 004°52'0 0.0
2015-Apr-14 01:32N 52°24' E 004°52'0 0.0
2015-Apr-14 00:31N 52°24' E 004°52'0 0.0
2015-Apr-13 23:31N 52°24' E 004°52'0 0.0
2015-Apr-13 22:31N 52°24' E 004°52'0 0.0
2015-Apr-13 21:31N 52°24' E 004°52'0 0.0
2015-Apr-13 20:31N 52°24' E 004°52'0 0.0
2015-Apr-13 19:31N 52°24' E 004°52'0 0.0
2015-Apr-13 18:31N 52°24' E 004°52'0 0.0
2015-Apr-13 17:31N 52°24' E 004°52'0 0.0
2015-Apr-13 16:31N 52°24' E 004°52'0 0.0
2015-Apr-13 15:31N 52°24' E 004°52'0 0.0
2015-Apr-13 14:31N 52°24' E 004°52'0 0.0
2015-Apr-13 13:31N 52°24' E 004°52'0 0.0
2015-Apr-13 12:31N 52°24' E 004°52'0 0.0
2015-Apr-13 11:31N 52°24' E 004°52'0 0.0
2015-Apr-13 10:31N 52°24' E 004°52'0 0.0
2015-Apr-13 09:31N 52°24' E 004°52'0 0.0
2015-Apr-13 08:31N 52°24' E 004°52'0 0.0
2015-Apr-13 07:31N 52°24' E 004°52'0 0.0
2015-Apr-13 06:31N 52°24' E 004°52'0 0.0
2015-Apr-13 05:28N 52°24' E 004°52'0 0.0
2015-Apr-13 04:31N 52°24' E 004°52'0 0.0
2015-Apr-13 03:31N 52°24' E 004°52'0 0.0
2015-Apr-13 02:31N 52°24' E 004°52'0 0.0
2015-Apr-13 01:31N 52°24' E 004°52'0 0.0
2015-Apr-13 00:31N 52°24' E 004°52'0 0.0
2015-Apr-12 23:31N 52°24' E 004°52'0 0.0
2015-Apr-12 22:31N 52°24' E 004°52'0 0.0
2015-Apr-12 21:31N 52°24' E 004°52'0 0.0
2015-Apr-12 20:31N 52°24' E 004°52'0 0.0
2015-Apr-12 19:31N 52°24' E 004°52'0 0.0
2015-Apr-12 18:34N 52°24' E 004°52'0 0.0
2015-Apr-12 17:34N 52°24' E 004°52'0 0.0
2015-Apr-12 16:33N 52°24' E 004°52'0 0.0
2015-Apr-12 15:33N 52°24' E 004°52'0 0.0
2015-Apr-12 14:33N 52°24' E 004°52'0 0.0
2015-Apr-12 13:33N 52°24' E 004°52'0 0.0
2015-Apr-12 12:33N 52°24' E 004°52'0 0.0
2015-Apr-12 11:33N 52°24' E 004°52'0 0.0
2015-Apr-12 10:33N 52°24' E 004°52'0 0.0
2015-Apr-12 09:33N 52°24' E 004°52'0 0.0
2015-Apr-12 08:33N 52°24' E 004°52'0 0.0
2015-Apr-12 07:33N 52°24' E 004°52'0 0.0
2015-Apr-12 06:33N 52°24' E 004°52'0 0.0
2015-Apr-12 05:33N 52°24' E 004°52'0 0.0
2015-Apr-12 04:33N 52°24' E 004°52'0 0.0
2015-Apr-12 03:33N 52°24' E 004°52'0 0.0
2015-Apr-12 02:33N 52°24' E 004°52'0 0.0
2015-Apr-12 01:33N 52°24' E 004°52'0 0.0
2015-Apr-12 00:30N 52°24' E 004°52'0 0.0
2015-Apr-11 23:30N 52°24' E 004°52'0 0.0
2015-Apr-11 22:33N 52°24' E 004°52'0 0.0
2015-Apr-11 21:33N 52°24' E 004°52'0 0.0
2015-Apr-11 20:33N 52°24' E 004°52'0 0.0
2015-Apr-11 19:33N 52°24' E 004°52'0 0.0
2015-Apr-11 18:33N 52°24' E 004°52'0 0.0
2015-Apr-11 17:33N 52°24' E 004°52'0 0.0
2015-Apr-11 16:33N 52°24' E 004°52'0 0.0
2015-Apr-11 15:33N 52°24' E 004°52'0 0.0
2015-Apr-11 14:33N 52°24' E 004°52'0 0.0
2015-Apr-11 13:33N 52°24' E 004°52'0 0.0
2015-Apr-11 12:33N 52°24' E 004°52'0 0.0
2015-Apr-11 11:34N 52°24' E 004°52'5 5.4
2015-Apr-11 10:34N 52°26' E 004°44'5 5.0
2015-Apr-11 09:34N 52°28' E 004°36'2 1.8
2015-Apr-11 08:34N 52°28' E 004°34'9 9.3
2015-Apr-11 07:33N 52°29' E 004°18'7 7.2
2015-Apr-11 06:31N 52°27' E 004°06'0 0.0
2015-Apr-11 05:31N 52°27' E 004°06'0 0.0
2015-Apr-11 04:31N 52°27' E 004°06'0 0.2
2015-Apr-11 03:31N 52°27' E 004°06'1 1.4
2015-Apr-11 02:33N 52°27' E 004°04'1010.5
2015-Apr-11 01:34N 52°24' E 003°48'1212.1
2015-Apr-11 00:33N 52°17' E 003°31'1211.9
2015-Apr-10 23:33N 52°11' E 003°14'1212.0
2015-Apr-10 22:33N 52°02' E 003°01'1312.6
2015-Apr-10 21:33N 51°53' E 002°47'1513.2
2015-Apr-10 20:27N 51°42' E 002°32'1213.5
2015-Apr-10 19:33N 51°33' E 002°19'1413.9
2015-Apr-10 18:33N 51°20' E 002°09'1313.5
2015-Apr-10 17:34N 51°10' E 001°55'1514.7
2015-Apr-10 16:34N 51°01' E 001°37'1515.2
2015-Apr-10 15:34N 50°48' E 001°24'1414.2
2015-Apr-10 14:34N 50°37' E 001°11'1513.9
2015-Apr-10 13:31N 50°29' E 000°52'1814.5
2015-Apr-10 12:15N 50°24' E 000°24'1314.8
2015-Apr-10 11:22N 50°20' E 000°04'2814.2
2015-Apr-10 09:22N 50°13' W 000°39'1113.2
2015-Apr-10 08:33N 50°10' W 000°55'1212.2
2015-Apr-10 07:34N 50°07' W 001°13'1111.1
2015-Apr-10 06:34N 50°04' W 001°30'10 9.9
2015-Apr-10 05:33N 50°01' W 001°45'9 9.5
2015-Apr-10 04:33N 49°59' W 001°59'10 9.8
2015-Apr-10 03:33N 49°56' W 002°14'1111.4
2015-Apr-10 02:33N 49°53' W 002°31'2512.5
2015-Apr-10 00:33N 49°44' W 003°07'1313.2
2015-Apr-09 23:33N 49°37' W 003°25'10013.9
2015-Apr-09 16:20N 48°47' W 005°37'  

Dump ship's entire track history